Atherstone, United Kingdom
Current Conditions -  °F | °C
As of 12:20 PM on Monday 20 Oct 2014 (Local Time) from EGBB Reporting Station
Broken Clouds Broken Clouds  
Wind Chill: 57°   Ceiling: 4200
Heat Index: 57°   Visibility: 6mi
Dew Point: 48°   Wind: 10mph
Humidity: 72%   Direction: 250°WSW
Pressure: 29.94"   Gusts: NA
Location:  52.58°N, 1.55°W
Report Text: EGBB 201120Z 25009KT 200V270 9999 FEW022 BKN042 14/09 Q1014
Loading
Personal Weather Stations






























Interactive Weather Map
Tropical Storm Tracking
New forecast layout! Learn more

10-Day Weather Forecast

Advertisements
Track Severe Weather on mobile